Time;durP1;ratioP1;P1;durP2;ratioP2;P2;SDS_P1;SDS_P2;PMS_P1;PMS_P2;Temp;Humidity;BMP_temperature;BMP_pressure;BME280_temperature;BME280_humidity;BME280_pressure;Samples;Min_cycle;Max_cycle;Signal;HPM_P1;HPM_P2
2023/03/26 00:00:47;;;;;;;8.50;2.60;;;10.50;99.90;;;;;;5054070;28;20427;-71
2023/03/26 00:03:15;;;;;;;13.77;2.63;;;10.50;99.90;;;;;;5054754;28;20457;-73
2023/03/26 00:05:40;;;;;;;13.00;2.67;;;10.50;99.90;;;;;;5036182;28;20413;-72
2023/03/26 00:08:10;;;;;;;13.10;3.47;;;10.60;99.90;;;;;;5035144;28;20406;-71
2023/03/26 00:10:37;;;;;;;9.40;2.80;;;10.50;99.90;;;;;;5034846;28;20175;-71
2023/03/26 00:13:04;;;;;;;9.83;3.07;;;10.50;99.90;;;;;;5035149;28;20449;-73
2023/03/26 00:15:30;;;;;;;8.00;2.27;;;10.50;99.90;;;;;;5035318;28;21009;-71
2023/03/26 00:17:56;;;;;;;7.80;2.17;;;10.50;99.90;;;;;;5035834;28;20403;-70
2023/03/26 00:20:22;;;;;;;8.93;2.03;;;10.50;99.90;;;;;;5035688;28;20925;-72
2023/03/26 00:22:49;;;;;;;17.00;2.70;;;10.50;99.90;;;;;;5034203;28;20277;-72
2023/03/26 00:25:16;;;;;;;6.87;2.03;;;10.60;99.90;;;;;;5034173;28;20414;-73
2023/03/26 00:27:44;;;;;;;8.03;2.30;;;10.50;99.90;;;;;;5035521;28;20505;-72
2023/03/26 00:30:10;;;;;;;11.60;3.33;;;10.50;99.90;;;;;;5034789;28;20407;-72
2023/03/26 00:32:36;;;;;;;16.40;2.77;;;10.50;99.90;;;;;;5035863;28;20429;-73
2023/03/26 00:35:02;;;;;;;12.80;2.53;;;10.40;99.90;;;;;;5036738;28;20410;-72
2023/03/26 00:37:29;;;;;;;6.53;2.07;;;10.50;99.90;;;;;;5058832;28;20683;-73
2023/03/26 00:39:58;;;;;;;12.63;2.27;;;10.40;99.90;;;;;;5074490;28;20442;-73
2023/03/26 00:42:24;;;;;;;7.17;2.10;;;10.40;99.90;;;;;;5074454;28;21025;-72
2023/03/26 00:44:53;;;;;;;14.60;2.77;;;10.40;99.90;;;;;;5074998;28;20413;-72
2023/03/26 00:47:20;;;;;;;9.60;2.83;;;10.40;99.90;;;;;;5074222;28;20408;-71
2023/03/26 00:49:47;;;;;;;12.30;2.70;;;10.30;99.90;;;;;;5072961;28;20405;-70
2023/03/26 00:52:17;;;;;;;17.57;3.73;;;10.30;99.90;;;;;;5072750;28;20413;-71
2023/03/26 00:55:01;;;;;;;10.83;2.50;;;10.30;99.90;;;;;;5072927;28;20415;-70
2023/03/26 00:57:28;;;;;;;2.70;1.97;;;10.30;99.90;;;;;;5071300;28;20422;-70
2023/03/26 00:59:54;;;;;;;6.70;2.33;;;10.20;99.90;;;;;;5072712;28;20404;-70
2023/03/26 01:02:20;;;;;;;10.50;2.60;;;10.10;99.90;;;;;;5072426;28;20463;-70
2023/03/26 01:04:54;;;;;;;8.47;2.67;;;10.00;99.90;;;;;;5060935;28;20467;-70
2023/03/26 01:07:21;;;;;;;6.13;2.57;;;9.90;99.90;;;;;;5052306;28;20412;-70
2023/03/26 01:09:50;;;;;;;14.80;2.93;;;9.80;99.90;;;;;;5052606;28;20781;-70
2023/03/26 01:12:19;;;;;;;3.30;1.77;;;9.60;99.90;;;;;;5052515;28;20482;-70
2023/03/26 01:14:47;;;;;;;8.17;2.30;;;9.50;99.90;;;;;;5052530;28;20792;-71
2023/03/26 01:17:13;;;;;;;7.77;2.20;;;9.40;99.90;;;;;;5052119;28;20500;-70
2023/03/26 01:19:50;;;;;;;5.00;1.60;;;9.30;99.90;;;;;;5052350;28;20866;-70
2023/03/26 01:22:19;;;;;;;10.87;2.10;;;9.10;99.90;;;;;;5052227;28;20461;-70
2023/03/26 01:24:51;;;;;;;6.33;2.57;;;9.00;99.90;;;;;;5052396;28;20401;-71
2023/03/26 01:27:17;;;;;;;5.47;1.90;;;8.80;99.90;;;;;;5052085;28;20406;-71
2023/03/26 01:29:52;;;;;;;4.03;1.97;;;8.80;99.90;;;;;;5052321;28;20409;-70
2023/03/26 01:32:46;;;;;;;11.70;1.90;;;8.70;99.90;;;;;;5050812;28;20191;-71
2023/03/26 01:35:17;;;;;;;9.80;1.90;;;8.60;99.90;;;;;;5052315;28;20405;-70
2023/03/26 01:37:57;;;;;;;11.13;2.30;;;8.60;99.90;;;;;;5052004;28;20910;-70
2023/03/26 01:40:41;;;;;;;5.17;2.17;;;8.60;99.90;;;;;;5052073;28;20401;-70
2023/03/26 01:43:34;;;;;;;5.90;2.83;;;8.60;99.90;;;;;;5064192;28;20460;-70
2023/03/26 01:46:04;;;;;;;6.67;2.73;;;8.50;99.90;;;;;;5030810;28;20407;-71
2023/03/26 01:48:44;;;;;;;6.97;2.43;;;8.60;99.90;;;;;;5031826;28;20398;-70
2023/03/26 01:51:12;;;;;;;11.40;2.00;;;8.60;99.90;;;;;;5032174;28;20398;-70
2023/03/26 01:53:43;;;;;;;5.67;3.63;;;8.60;99.90;;;;;;5031969;28;20425;-70
2023/03/26 01:56:24;;;;;;;4.53;2.27;;;8.60;99.90;;;;;;5032099;28;20899;-70
2023/03/26 01:59:21;;;;;;;7.83;1.43;;;8.60;99.90;;;;;;5031224;28;20915;-70
2023/03/26 02:01:53;;;;;;;4.60;2.10;;;8.70;99.90;;;;;;5031838;28;20410;-71
2023/03/26 02:04:44;;;;;;;4.90;1.97;;;8.70;99.90;;;;;;5039745;28;20413;-71
2023/03/26 02:07:33;;;;;;;13.43;2.60;;;8.80;99.90;;;;;;5051535;28;20496;-70
2023/03/26 02:10:05;;;;;;;6.97;1.63;;;8.80;99.90;;;;;;5050569;28;20410;-70
2023/03/26 02:12:32;;;;;;;6.60;1.97;;;8.80;99.90;;;;;;5050392;28;20441;-71
2023/03/26 02:15:00;;;;;;;3.23;1.87;;;8.80;99.90;;;;;;5051666;28;20429;-72
2023/03/26 02:17:28;;;;;;;7.07;2.57;;;8.90;99.90;;;;;;5051443;28;20496;-71
2023/03/26 02:19:55;;;;;;;7.17;2.20;;;8.90;99.90;;;;;;5051740;28;20933;-70
2023/03/26 02:22:21;;;;;;;10.93;3.63;;;9.00;99.90;;;;;;5050129;28;20935;-70
2023/03/26 02:24:47;;;;;;;5.80;2.03;;;9.00;99.90;;;;;;5051526;28;20410;-69
2023/03/26 02:27:17;;;;;;;6.17;2.23;;;9.10;99.90;;;;;;5051385;28;20894;-70
2023/03/26 02:29:42;;;;;;;6.47;2.80;;;9.10;99.90;;;;;;5051585;28;20472;-70
2023/03/26 02:32:12;;;;;;;12.10;2.57;;;9.10;99.90;;;;;;5051439;28;20406;-70
2023/03/26 02:34:40;;;;;;;5.90;1.90;;;9.20;99.90;;;;;;5050368;28;20180;-70
2023/03/26 02:37:06;;;;;;;3.13;1.93;;;9.20;99.90;;;;;;5051072;28;20416;-70
2023/03/26 02:39:32;;;;;;;8.93;2.07;;;9.20;99.90;;;;;;5051549;28;20762;-71
2023/03/26 02:41:58;;;;;;;3.87;2.33;;;9.30;99.90;;;;;;5051276;28;20179;-71
2023/03/26 02:44:23;;;;;;;5.73;1.93;;;9.40;99.90;;;;;;5051401;28;20433;-70
2023/03/26 02:46:49;;;;;;;6.23;1.70;;;9.30;99.90;;;;;;5051260;28;20250;-74
2023/03/26 02:49:15;;;;;;;7.23;2.63;;;9.40;99.90;;;;;;5051783;28;20174;-71
2023/03/26 02:51:40;;;;;;;13.43;2.67;;;9.40;99.90;;;;;;5062986;28;20201;-70
2023/03/26 02:54:06;;;;;;;7.23;1.60;;;9.40;99.90;;;;;;5050055;28;20233;-70
2023/03/26 02:56:31;;;;;;;9.53;1.97;;;9.40;99.90;;;;;;5051350;28;20174;-70
2023/03/26 02:58:57;;;;;;;9.93;2.47;;;9.40;99.90;;;;;;5051068;28;20167;-70
2023/03/26 03:01:23;;;;;;;7.33;1.80;;;9.40;99.90;;;;;;5050131;28;20178;-70
2023/03/26 03:03:48;;;;;;;4.20;1.53;;;9.40;99.90;;;;;;5047429;28;20196;-71
2023/03/26 03:06:17;;;;;;;10.50;2.10;;;9.40;99.90;;;;;;5031336;28;20195;-70
2023/03/26 03:08:47;;;;;;;8.63;2.60;;;9.40;99.90;;;;;;5031056;28;20520;-70
2023/03/26 03:11:15;;;;;;;6.10;1.70;;;9.40;99.90;;;;;;5031794;28;20993;-70
2023/03/26 03:13:41;;;;;;;5.73;1.90;;;9.50;99.90;;;;;;5034619;28;20469;-71
2023/03/26 03:16:08;;;;;;;9.77;2.10;;;9.50;99.90;;;;;;5034877;28;20425;-70
2023/03/26 03:18:34;;;;;;;7.73;1.70;;;9.50;99.90;;;;;;5033188;28;20485;-70
2023/03/26 03:21:00;;;;;;;5.13;1.93;;;9.50;99.90;;;;;;5034816;28;20406;-70
2023/03/26 03:23:25;;;;;;;2.90;1.40;;;9.50;99.90;;;;;;5034585;28;20449;-70
2023/03/26 03:25:51;;;;;;;18.00;2.80;;;9.50;99.90;;;;;;5034736;28;20670;-70
2023/03/26 03:28:18;;;;;;;7.77;2.00;;;9.50;99.90;;;;;;5034356;28;20172;-71
2023/03/26 03:30:44;;;;;;;5.87;1.87;;;9.40;99.90;;;;;;5033287;28;20416;-70
2023/03/26 03:33:11;;;;;;;6.63;2.33;;;9.30;99.90;;;;;;5034367;28;20457;-70
2023/03/26 03:35:38;;;;;;;4.27;2.13;;;9.30;99.90;;;;;;5034490;28;20399;-72
2023/03/26 03:38:04;;;;;;;4.73;2.00;;;9.30;99.90;;;;;;5034156;28;20410;-70
2023/03/26 03:40:29;;;;;;;6.33;1.50;;;9.30;99.90;;;;;;5034357;28;20455;-70
2023/03/26 03:42:55;;;;;;;9.87;2.23;;;9.30;99.90;;;;;;5034218;28;20274;-70
2023/03/26 03:45:21;;;;;;;15.43;2.80;;;9.30;99.90;;;;;;5034403;28;20242;-70
2023/03/26 03:47:46;;;;;;;9.73;2.33;;;9.30;99.90;;;;;;5033930;28;20179;-70
2023/03/26 03:50:12;;;;;;;3.37;1.20;;;9.40;99.90;;;;;;5034295;28;20221;-71
2023/03/26 03:52:37;;;;;;;4.50;1.73;;;9.40;99.90;;;;;;5034092;28;20223;-71
2023/03/26 03:55:03;;;;;;;5.13;2.10;;;9.50;99.90;;;;;;5034190;28;20175;-70
2023/03/26 03:57:30;;;;;;;8.83;5.43;;;9.60;99.90;;;;;;5033718;28;20167;-70
2023/03/26 03:59:57;;;;;;;11.70;3.87;;;9.60;99.90;;;;;;5036518;28;20406;-71
2023/03/26 04:02:29;;;;;;;10.00;2.97;;;9.60;99.90;;;;;;5064836;28;20459;-70
2023/03/26 04:04:56;;;;;;;11.97;1.70;;;9.70;99.90;;;;;;5041186;28;20472;-70
2023/03/26 04:07:23;;;;;;;5.90;1.50;;;9.70;99.90;;;;;;5033723;28;20398;-70
2023/03/26 04:09:48;;;;;;;3.73;2.93;;;9.70;99.90;;;;;;5033884;28;20488;-70
2023/03/26 04:12:14;;;;;;;14.90;3.23;;;9.60;99.90;;;;;;5033739;28;20517;-70
2023/03/26 04:14:40;;;;;;;4.03;1.73;;;9.60;99.90;;;;;;5033640;28;20725;-70
2023/03/26 04:17:05;;;;;;;7.80;1.73;;;9.60;99.90;;;;;;5033536;28;20213;-70
2023/03/26 04:19:31;;;;;;;6.37;4.03;;;9.60;99.90;;;;;;5033599;28;20174;-71
2023/03/26 04:22:01;;;;;;;11.50;1.83;;;9.60;99.90;;;;;;5033007;28;20203;-71
2023/03/26 04:24:28;;;;;;;3.77;1.03;;;9.50;99.90;;;;;;5033352;28;20652;-70
2023/03/26 04:26:57;;;;;;;3.13;1.77;;;9.50;99.90;;;;;;5032008;28;20429;-71
2023/03/26 04:29:26;;;;;;;2.57;1.23;;;9.50;99.90;;;;;;5033465;28;21089;-70
2023/03/26 04:31:57;;;;;;;3.93;1.87;;;9.40;99.90;;;;;;5033445;28;20402;-70
2023/03/26 04:34:23;;;;;;;6.63;2.27;;;9.30;99.90;;;;;;5033406;28;20395;-70
2023/03/26 04:36:53;;;;;;;5.60;2.30;;;9.30;99.90;;;;;;5031905;28;20421;-71
2023/03/26 04:39:28;;;;;;;7.33;2.33;;;9.30;99.90;;;;;;5033319;28;20399;-70
2023/03/26 04:41:57;;;;;;;7.57;2.30;;;9.30;99.90;;;;;;5031937;28;20417;-70
2023/03/26 04:44:22;;;;;;;4.73;1.00;;;9.10;99.90;;;;;;5033114;28;20950;-70
2023/03/26 04:46:51;;;;;;;6.90;1.70;;;9.10;99.90;;;;;;5033044;28;20446;-70
2023/03/26 04:49:17;;;;;;;9.60;2.07;;;9.10;99.90;;;;;;5033081;28;20464;-71
2023/03/26 04:51:45;;;;;;;6.83;1.93;;;9.20;99.90;;;;;;5032980;28;20414;-70
2023/03/26 04:54:13;;;;;;;8.93;1.73;;;9.00;99.90;;;;;;5033049;28;20452;-70
2023/03/26 04:56:53;;;;;;;7.60;3.30;;;9.00;99.90;;;;;;5032759;28;20410;-70
2023/03/26 04:59:33;;;;;;;5.57;1.73;;;8.90;99.90;;;;;;5032932;28;20774;-71
2023/03/26 05:02:03;;;;;;;11.40;2.70;;;8.90;99.90;;;;;;5031629;28;20422;-70
2023/03/26 05:04:30;;;;;;;4.20;1.97;;;8.90;99.90;;;;;;5032849;28;20430;-70
2023/03/26 05:06:59;;;;;;;5.57;1.80;;;9.00;99.90;;;;;;5032554;28;20434;-71
2023/03/26 05:09:25;;;;;;;7.43;2.10;;;9.00;99.90;;;;;;5032733;28;20817;-70
2023/03/26 05:11:51;;;;;;;9.33;2.90;;;9.00;99.90;;;;;;5039062;28;20409;-70
2023/03/26 05:14:17;;;;;;;9.63;1.47;;;9.10;99.90;;;;;;5062975;28;20218;-70
2023/03/26 05:16:45;;;;;;;6.07;2.00;;;9.00;99.90;;;;;;5052497;28;20171;-70
2023/03/26 05:19:11;;;;;;;7.57;3.97;;;9.10;99.90;;;;;;5052302;28;20731;-70
2023/03/26 05:21:36;;;;;;;3.93;1.63;;;9.10;99.90;;;;;;5052465;28;20824;-70
2023/03/26 05:24:04;;;;;;;9.10;2.50;;;9.00;99.90;;;;;;5052295;28;20465;-71
2023/03/26 05:26:30;;;;;;;9.13;2.50;;;9.00;99.90;;;;;;5052348;28;20197;-70
2023/03/26 05:28:55;;;;;;;2.30;1.60;;;8.90;99.90;;;;;;5050884;28;20502;-70
2023/03/26 05:31:21;;;;;;;3.80;1.70;;;8.80;99.90;;;;;;5052359;28;20159;-70
2023/03/26 05:33:47;;;;;;;8.37;1.40;;;8.70;99.90;;;;;;5050724;28;20230;-71
2023/03/26 05:36:14;;;;;;;3.90;2.33;;;8.70;99.90;;;;;;5052303;28;20256;-70
2023/03/26 05:38:42;;;;;;;2.90;1.20;;;8.70;99.90;;;;;;5051910;28;20487;-70
2023/03/26 05:41:09;;;;;;;10.73;1.90;;;8.70;99.90;;;;;;5052081;28;20482;-70
2023/03/26 05:43:35;;;;;;;5.20;1.80;;;8.70;99.90;;;;;;5052044;28;20549;-71
2023/03/26 05:46:00;;;;;;;3.87;2.03;;;8.80;99.90;;;;;;5052111;28;20830;-70
2023/03/26 05:48:27;;;;;;;9.40;2.13;;;8.80;99.90;;;;;;5051641;28;20155;-71
2023/03/26 05:50:54;;;;;;;2.37;1.70;;;8.90;99.90;;;;;;5051990;28;20166;-70
2023/03/26 05:53:22;;;;;;;5.80;1.43;;;9.00;99.90;;;;;;5051810;28;20471;-70
2023/03/26 05:55:57;;;;;;;4.30;1.90;;;9.10;99.90;;;;;;5051963;28;20770;-70
2023/03/26 05:58:25;;;;;;;5.50;2.03;;;9.10;99.90;;;;;;5051693;28;20921;-70
2023/03/26 06:01:04;;;;;;;5.23;1.90;;;9.10;99.90;;;;;;5051920;28;20463;-70
2023/03/26 06:03:31;;;;;;;2.43;1.50;;;9.10;99.90;;;;;;5050614;28;20449;-70
2023/03/26 06:05:57;;;;;;;3.33;1.73;;;9.10;99.90;;;;;;5031973;28;20463;-70
2023/03/26 06:08:23;;;;;;;11.10;5.57;;;9.20;99.90;;;;;;5031664;28;20982;-70
2023/03/26 06:10:49;;;;;;;4.67;2.23;;;9.10;99.90;;;;;;5031930;28;20405;-70
2023/03/26 06:13:15;;;;;;;13.07;2.63;;;9.10;99.90;;;;;;5031728;28;20195;-70
2023/03/26 06:15:41;;;;;;;1.80;1.60;;;9.10;99.90;;;;;;5031843;28;20421;-70
2023/03/26 06:18:07;;;;;;;5.73;1.80;;;9.20;99.90;;;;;;5031536;28;20486;-70
2023/03/26 06:20:33;;;;;;;9.77;2.77;;;9.10;99.90;;;;;;5032079;28;20926;-70
2023/03/26 06:22:58;;;;;;;4.00;2.30;;;9.00;99.90;;;;;;5035826;28;20674;-70
2023/03/26 06:25:24;;;;;;;2.60;1.93;;;9.00;99.90;;;;;;5062779;28;20158;-70
2023/03/26 06:27:49;;;;;;;8.40;2.70;;;9.00;99.90;;;;;;5051323;28;20163;-71
2023/03/26 06:30:15;;;;;;;3.93;1.90;;;8.90;99.90;;;;;;5051776;28;20528;-70
2023/03/26 06:32:41;;;;;;;4.83;2.00;;;8.90;99.90;;;;;;5051562;28;20233;-70
2023/03/26 06:35:06;;;;;;;10.70;2.57;;;8.90;99.90;;;;;;5051604;28;20163;-70
2023/03/26 06:37:32;;;;;;;11.40;2.60;;;9.00;99.90;;;;;;5051393;28;20254;-71
2023/03/26 06:39:58;;;;;;;9.57;2.97;;;8.80;99.90;;;;;;5051765;28;20441;-70
2023/03/26 06:42:23;;;;;;;5.00;2.40;;;8.80;99.90;;;;;;5051793;28;20198;-71
2023/03/26 06:44:49;;;;;;;5.63;2.30;;;8.80;99.90;;;;;;5051498;28;20309;-71
2023/03/26 06:47:14;;;;;;;4.10;2.50;;;8.80;99.90;;;;;;5054327;28;20167;-71
2023/03/26 06:49:40;;;;;;;4.33;1.97;;;8.70;99.90;;;;;;5055288;28;20166;-71
2023/03/26 06:52:06;;;;;;;9.87;3.33;;;8.80;99.90;;;;;;5055193;28;20224;-70
2023/03/26 06:54:31;;;;;;;6.37;3.23;;;8.70;99.90;;;;;;5055258;28;20405;-71
2023/03/26 06:56:58;;;;;;;4.30;2.47;;;8.80;99.90;;;;;;5053656;28;20266;-71
2023/03/26 06:59:24;;;;;;;3.40;1.70;;;8.90;99.90;;;;;;5055207;28;20170;-71
2023/03/26 07:01:50;;;;;;;3.23;2.53;;;9.00;99.90;;;;;;5055034;28;20409;-71
2023/03/26 07:04:15;;;;;;;4.97;2.17;;;9.00;99.90;;;;;;5054843;28;20702;-71
2023/03/26 07:06:41;;;;;;;3.43;2.13;;;8.90;99.90;;;;;;5055029;28;20163;-71
2023/03/26 07:09:06;;;;;;;5.60;1.83;;;9.00;99.90;;;;;;5054651;28;20294;-71
2023/03/26 07:11:32;;;;;;;4.00;2.13;;;9.00;99.90;;;;;;5053649;28;20225;-70
2023/03/26 07:13:58;;;;;;;7.57;1.80;;;9.00;99.90;;;;;;5054696;28;20206;-71
2023/03/26 07:16:24;;;;;;;5.90;2.80;;;9.00;99.90;;;;;;5053550;28;20547;-71
2023/03/26 07:18:50;;;;;;;5.33;1.43;;;8.90;99.90;;;;;;5054511;28;20405;-71
2023/03/26 07:21:16;;;;;;;5.63;2.53;;;8.90;99.90;;;;;;5053589;28;20536;-71
2023/03/26 07:23:41;;;;;;;8.30;2.67;;;8.90;99.90;;;;;;5054497;28;20457;-71
2023/03/26 07:26:35;;;;;;;10.00;1.90;;;8.90;99.90;;;;;;5054588;28;20169;-72
2023/03/26 07:29:12;;;;;;;12.20;2.40;;;8.90;99.90;;;;;;5054422;28;20397;-71
2023/03/26 07:32:02;;;;;;;7.73;2.83;;;8.80;99.90;;;;;;5055868;28;20415;-71
2023/03/26 07:34:33;;;;;;;6.03;1.93;;;8.80;99.90;;;;;;5056419;28;20420;-71
2023/03/26 07:37:25;;;;;;;4.60;3.70;;;8.80;99.90;;;;;;5074078;28;20825;-70
2023/03/26 07:40:09;;;;;;;8.70;2.23;;;8.70;99.90;;;;;;5074429;28;20392;-71
2023/03/26 07:42:47;;;;;;;6.80;3.27;;;8.70;99.90;;;;;;5074212;28;20455;-71
2023/03/26 07:45:28;;;;;;;7.90;2.73;;;8.70;99.90;;;;;;5074272;28;20411;-70
2023/03/26 07:47:55;;;;;;;5.10;2.83;;;8.60;99.90;;;;;;5073839;28;20397;-71
2023/03/26 07:50:23;;;;;;;9.80;2.33;;;8.60;99.90;;;;;;5074202;28;20393;-71
2023/03/26 07:52:49;;;;;;;3.30;1.93;;;8.50;99.90;;;;;;5073943;28;20421;-70
2023/03/26 07:55:16;;;;;;;15.57;2.90;;;8.50;99.90;;;;;;5072733;28;20427;-71
2023/03/26 07:58:00;;;;;;;8.87;2.47;;;8.50;99.90;;;;;;5073733;28;20454;-70
2023/03/26 08:00:34;;;;;;;6.47;2.30;;;8.50;99.90;;;;;;5074060;28;20403;-71
2023/03/26 08:03:30;;;;;;;7.43;2.33;;;8.50;99.90;;;;;;5073841;28;21072;-70
2023/03/26 08:06:34;;;;;;;3.33;2.03;;;8.50;99.90;;;;;;5030685;28;20505;-71
2023/03/26 08:09:11;;;;;;;10.57;2.20;;;8.50;99.90;;;;;;5033876;28;20398;-70
2023/03/26 08:12:00;;;;;;;3.93;2.27;;;8.40;99.90;;;;;;5033961;28;20796;-69
2023/03/26 08:14:41;;;;;;;8.03;2.50;;;8.40;99.90;;;;;;5033558;28;20429;-70
2023/03/26 08:17:13;;;;;;;3.83;2.53;;;8.30;99.90;;;;;;5035015;28;20775;-69
2023/03/26 08:20:21;;;;;;;9.17;2.83;;;8.30;99.90;;;;;;5034318;28;20491;-69
2023/03/26 08:22:51;;;;;;;5.03;2.50;;;8.30;99.90;;;;;;5030987;28;20470;-70
2023/03/26 08:25:21;;;;;;;6.47;2.50;;;8.30;99.90;;;;;;5033836;28;20415;-70
2023/03/26 08:28:19;;;;;;;9.87;2.80;;;8.20;99.90;;;;;;5032010;28;20871;-70
2023/03/26 08:30:45;;;;;;;3.27;2.50;;;8.20;99.90;;;;;;5021349;28;20487;-70
2023/03/26 08:33:16;;;;;;;12.67;2.30;;;8.20;99.90;;;;;;5033340;28;20513;-70
2023/03/26 08:35:42;;;;;;;4.77;2.63;;;8.30;99.90;;;;;;5033550;28;20930;-70
2023/03/26 08:38:13;;;;;;;10.47;3.10;;;8.40;99.90;;;;;;5045630;28;20884;-69
2023/03/26 08:40:59;;;;;;;12.53;2.20;;;8.30;99.90;;;;;;5060690;28;20550;-71
2023/03/26 08:43:58;;;;;;;5.33;2.83;;;8.40;99.90;;;;;;5041602;28;21004;-70
2023/03/26 08:47:11;;;;;;;3.47;1.87;;;8.30;99.90;;;;;;5053233;28;20401;-70
2023/03/26 08:49:59;;;;;;;3.77;2.10;;;8.40;99.90;;;;;;5051938;28;20508;-69
2023/03/26 08:52:35;;;;;;;6.57;2.47;;;8.40;99.90;;;;;;5052955;28;20515;-69
2023/03/26 08:55:27;;;;;;;4.57;1.60;;;8.40;99.90;;;;;;5052979;28;20397;-70
2023/03/26 08:58:04;;;;;;;6.20;2.77;;;8.30;99.90;;;;;;5052713;28;20409;-70
2023/03/26 09:00:39;;;;;;;2.80;2.23;;;8.40;99.90;;;;;;5052866;28;20409;-70
2023/03/26 09:03:35;;;;;;;3.77;2.40;;;8.40;99.90;;;;;;5052703;28;20452;-70
2023/03/26 09:06:06;;;;;;;7.27;1.93;;;8.30;99.90;;;;;;5032816;28;20419;-70
2023/03/26 09:09:05;;;;;;;4.27;2.60;;;8.30;99.90;;;;;;5031984;28;20483;-69
2023/03/26 09:11:47;;;;;;;6.53;1.60;;;8.40;99.90;;;;;;5032801;28;20398;-70
2023/03/26 09:14:25;;;;;;;7.70;1.67;;;8.40;99.90;;;;;;5031977;28;20446;-70
2023/03/26 09:17:14;;;;;;;1.47;1.37;;;8.30;99.90;;;;;;5032368;28;20413;-71
2023/03/26 09:20:04;;;;;;;3.10;1.37;;;8.30;99.90;;;;;;5032598;28;20402;-70
2023/03/26 09:22:47;;;;;;;5.80;2.40;;;8.50;99.90;;;;;;5032301;28;20492;-70
2023/03/26 09:25:40;;;;;;;6.30;1.90;;;8.60;99.90;;;;;;5032470;28;20394;-70
2023/03/26 09:28:43;;;;;;;2.03;1.37;;;8.70;99.90;;;;;;5032186;28;20791;-70
2023/03/26 09:31:39;;;;;;;5.00;1.93;;;8.80;99.90;;;;;;5032340;28;20492;-71
2023/03/26 09:34:38;;;;;;;4.07;1.80;;;9.00;99.90;;;;;;5032451;28;20477;-71
2023/03/26 09:37:12;;;;;;;1.67;1.40;;;9.00;99.90;;;;;;5032897;28;20406;-72
2023/03/26 09:39:55;;;;;;;3.87;1.80;;;9.10;99.90;;;;;;5033433;28;20495;-72
2023/03/26 09:43:15;;;;;;;3.93;1.67;;;9.30;99.90;;;;;;5032967;28;20433;-73
2023/03/26 09:46:13;;;;;;;3.83;2.13;;;9.30;99.90;;;;;;5010946;28;20621;-73
2023/03/26 09:48:57;;;;;;;2.70;1.90;;;9.40;99.90;;;;;;5034402;28;20403;-71
2023/03/26 09:51:50;;;;;;;3.60;1.70;;;9.40;99.90;;;;;;5064672;28;20405;-72
2023/03/26 09:54:28;;;;;;;3.60;1.80;;;9.50;99.90;;;;;;5054302;28;20437;-71
2023/03/26 09:57:03;;;;;;;2.80;1.60;;;9.60;99.90;;;;;;5052089;28;20455;-71
2023/03/26 09:59:29;;;;;;;3.20;1.60;;;9.80;99.90;;;;;;5053834;28;20400;-72
2023/03/26 10:02:32;;;;;;;4.80;1.73;;;9.90;99.90;;;;;;5053606;28;20405;-72
2023/03/26 10:05:06;;;;;;;3.20;1.57;;;10.10;99.90;;;;;;5040226;28;20186;-72
2023/03/26 10:07:44;;;;;;;3.33;1.93;;;10.10;99.90;;;;;;5031794;28;20483;-72
2023/03/26 10:10:25;;;;;;;3.47;1.43;;;10.30;99.90;;;;;;5032906;28;20445;-72
2023/03/26 10:13:10;;;;;;;6.23;1.60;;;10.30;99.90;;;;;;5032399;28;20414;-71
2023/03/26 10:15:51;;;;;;;9.43;1.13;;;10.40;99.90;;;;;;5032388;28;20879;-72
2023/03/26 10:18:57;;;;;;;4.50;1.70;;;10.40;99.90;;;;;;5031874;28;20398;-72
2023/03/26 10:21:50;;;;;;;4.00;1.13;;;10.40;99.90;;;;;;5034187;28;20743;-71
2023/03/26 10:24:25;;;;;;;2.43;1.77;;;10.30;99.90;;;;;;5036046;28;21076;-71
2023/03/26 10:27:11;;;;;;;4.90;1.93;;;10.30;99.90;;;;;;5034368;28;20972;-72
2023/03/26 10:29:56;;;;;;;1.40;1.30;;;10.30;99.90;;;;;;5034690;28;20410;-71
2023/03/26 10:32:29;;;;;;;1.93;1.53;;;10.30;99.90;;;;;;5035659;28;20417;-72
2023/03/26 10:35:38;;;;;;;1.50;1.27;;;10.40;99.90;;;;;;5035961;28;20430;-71
2023/03/26 10:38:35;;;;;;;3.73;1.80;;;10.50;99.90;;;;;;5035466;28;20406;-71
2023/03/26 10:41:29;;;;;;;3.03;1.27;;;10.70;99.90;;;;;;5035263;28;20422;-72
2023/03/26 10:44:30;;;;;;;2.83;2.53;;;10.80;99.90;;;;;;5036090;28;20463;-71
2023/03/26 10:47:04;;;;;;;4.20;1.67;;;10.90;99.90;;;;;;5035578;28;20416;-72
2023/03/26 10:50:14;;;;;;;3.60;2.03;;;11.00;99.90;;;;;;5035726;28;20410;-72
2023/03/26 10:52:47;;;;;;;2.40;1.90;;;11.10;99.90;;;;;;5029925;28;20838;-72
2023/03/26 10:55:21;;;;;;;1.63;1.40;;;11.20;99.90;;;;;;5040020;28;20420;-71
2023/03/26 10:58:01;;;;;;;2.73;1.47;;;11.30;99.90;;;;;;5055227;28;20906;-70
2023/03/26 11:00:28;;;;;;;3.00;2.03;;;11.40;99.90;;;;;;5056276;28;20490;-71
2023/03/26 11:03:00;;;;;;;4.17;1.47;;;11.50;99.90;;;;;;5072947;28;21076;-71
2023/03/26 11:05:44;;;;;;;2.60;1.53;;;11.50;99.90;;;;;;5057925;28;20401;-71
2023/03/26 11:08:23;;;;;;;4.30;1.53;;;11.50;99.90;;;;;;5054888;28;20398;-70
2023/03/26 11:11:04;;;;;;;2.77;1.67;;;11.60;99.90;;;;;;5055311;28;20429;-72
2023/03/26 11:13:41;;;;;;;2.07;1.70;;;11.60;99.90;;;;;;5054522;28;20452;-71
2023/03/26 11:16:21;;;;;;;5.63;2.57;;;11.50;99.90;;;;;;5053917;28;20401;-71
2023/03/26 11:19:01;;;;;;;5.90;1.80;;;11.50;99.90;;;;;;5053255;28;20405;-71
2023/03/26 11:21:35;;;;;;;5.03;1.87;;;11.30;99.90;;;;;;5053743;28;20408;-71
2023/03/26 11:24:15;;;;;;;2.67;2.00;;;11.30;99.90;;;;;;5053636;28;20457;-71
2023/03/26 11:26:54;;;;;;;2.63;1.77;;;11.20;99.90;;;;;;5053936;28;20412;-74
2023/03/26 11:30:10;;;;;;;1.50;1.40;;;11.30;99.90;;;;;;5052444;28;20413;-71
2023/03/26 11:32:51;;;;;;;2.50;1.97;;;11.50;99.90;;;;;;5052858;28;21206;-70
2023/03/26 11:35:34;;;;;;;2.73;2.10;;;11.80;99.90;;;;;;5053285;28;20495;-70
2023/03/26 11:38:09;;;;;;;3.50;1.87;;;12.10;99.90;;;;;;5053087;28;20837;-70
2023/03/26 11:40:40;;;;;;;3.93;2.10;;;12.20;99.90;;;;;;5052980;28;20774;-70
2023/03/26 11:43:10;;;;;;;5.43;2.27;;;12.30;99.90;;;;;;5053117;28;21177;-70
2023/03/26 11:45:40;;;;;;;2.33;1.97;;;12.30;99.90;;;;;;5053265;28;20767;-70
2023/03/26 11:48:35;;;;;;;3.20;1.90;;;12.20;99.90;;;;;;5052977;28;20382;-70
2023/03/26 11:51:06;;;;;;;3.50;2.80;;;12.20;99.90;;;;;;5043657;28;20420;-70
2023/03/26 11:53:37;;;;;;;5.80;2.17;;;12.00;99.90;;;;;;5053011;28;20989;-70
2023/03/26 11:56:14;;;;;;;3.23;2.40;;;11.90;99.90;;;;;;5051777;28;20758;-70
2023/03/26 11:59:01;;;;;;;4.00;2.43;;;12.00;99.90;;;;;;5052668;28;20488;-70
2023/03/26 12:01:40;;;;;;;4.70;2.70;;;12.00;99.90;;;;;;5052498;28;20397;-70
2023/03/26 12:04:15;;;;;;;4.07;2.20;;;12.00;99.90;;;;;;5046386;28;20458;-70
2023/03/26 12:07:16;;;;;;;4.43;2.00;;;12.00;99.90;;;;;;5032912;28;20409;-71
2023/03/26 12:09:56;;;;;;;3.77;1.97;;;12.10;99.90;;;;;;5032996;28;20403;-69
2023/03/26 12:12:31;;;;;;;147.83;79.87;;;12.20;99.90;;;;;;5042646;28;20741;-70
2023/03/26 12:14:58;;;;;;;11.97;6.50;;;12.30;99.90;;;;;;5011657;28;1209344;-70
2023/03/26 12:17:31;;;;;;;3.63;2.23;;;12.40;99.90;;;;;;5053454;28;20650;-71
2023/03/26 12:19:57;;;;;;;3.33;2.20;;;12.60;99.90;;;;;;5053335;28;20550;-70
2023/03/26 12:22:38;;;;;;;2.13;1.93;;;12.70;99.90;;;;;;5053515;28;20486;-70
2023/03/26 12:25:21;;;;;;;2.20;1.50;;;13.00;99.90;;;;;;5053591;28;20405;-70
2023/03/26 12:27:54;;;;;;;1.33;1.23;;;13.20;99.90;;;;;;5053112;28;20417;-71
2023/03/26 12:30:21;;;;;;;3.40;1.70;;;13.50;99.90;;;;;;5053722;28;20723;-71
2023/03/26 12:32:49;;;;;;;1.73;1.63;;;13.70;99.90;;;;;;5053785;28;20478;-72
2023/03/26 12:35:25;;;;;;;3.20;1.33;;;13.90;99.90;;;;;;5053548;28;20422;-71
2023/03/26 12:37:53;;;;;;;4.20;2.00;;;14.10;99.90;;;;;;5053552;28;20409;-72
2023/03/26 12:40:24;;;;;;;2.83;1.80;;;14.10;99.90;;;;;;5053730;28;20405;-72
2023/03/26 12:42:58;;;;;;;10.20;6.57;;;14.20;99.90;;;;;;5053299;28;20453;-72
2023/03/26 12:45:40;;;;;;;6.77;2.17;;;14.20;99.90;;;;;;5053265;28;20405;-72
2023/03/26 12:48:09;;;;;;;6.33;1.80;;;14.20;99.90;;;;;;5052337;28;20413;-72
2023/03/26 12:50:58;;;;;;;3.43;1.90;;;14.20;99.90;;;;;;5053419;28;20409;-71
2023/03/26 12:53:32;;;;;;;3.97;2.27;;;14.00;99.90;;;;;;5053275;28;20908;-71
2023/03/26 12:56:18;;;;;;;20.87;13.83;;;13.90;99.90;;;;;;5053230;28;20401;-71
2023/03/26 12:59:06;;;;;;;3.83;3.30;;;13.70;99.90;;;;;;5052642;28;20433;-71
2023/03/26 13:01:50;;;;;;;2.77;2.00;;;13.50;99.90;;;;;;5052572;28;20406;-71
2023/03/26 13:04:39;;;;;;;4.43;1.67;;;13.20;99.90;;;;;;5044362;28;20592;-71
2023/03/26 13:07:26;;;;;;;3.80;2.27;;;13.00;99.90;;;;;;5032887;28;20403;-71
2023/03/26 13:10:36;;;;;;;3.60;1.90;;;12.80;99.90;;;;;;5033954;28;20894;-71
2023/03/26 13:13:32;;;;;;;4.03;2.40;;;12.60;99.90;;;;;;5033371;28;20930;-71
2023/03/26 13:16:39;;;;;;;3.57;1.90;;;12.40;99.90;;;;;;5032792;28;20402;-70
2023/03/26 13:19:24;;;;;;;1.77;1.67;;;12.30;99.90;;;;;;5032488;28;20527;-70
2023/03/26 13:22:08;;;;;;;3.33;2.67;;;12.20;99.90;;;;;;5052319;28;20412;-70
2023/03/26 13:25:01;;;;;;;5.50;2.07;;;12.10;99.90;;;;;;5071169;28;20460;-70
2023/03/26 13:27:54;;;;;;;4.10;2.10;;;12.10;99.90;;;;;;5072112;28;20450;-70
2023/03/26 13:30:46;;;;;;;3.00;2.00;;;12.10;99.90;;;;;;5073138;28;20442;-71